Time;durP1;ratioP1;P1;durP2;ratioP2;P2;SDS_P1;SDS_P2;PMS_P1;PMS_P2;Temp;Humidity;BMP_temperature;BMP_pressure;BME280_temperature;BME280_humidity;BME280_pressure;Samples;Min_cycle;Max_cycle;Signal;HPM_P1;HPM_P2
2022/07/01 00:00:18;;;;;;;12.88;7.80;;;;;;;23.29;95.88;100087.78;5167491;28;20111;-72
2022/07/01 00:02:48;;;;;;;12.27;8.02;;;;;;;23.23;96.25;100105.22;5171051;28;20465;-72
2022/07/01 00:05:19;;;;;;;11.02;7.80;;;;;;;23.25;96.16;100110.41;5167627;28;20109;-72
2022/07/01 00:07:50;;;;;;;10.32;7.30;;;;;;;23.30;95.62;100114.34;5170428;28;20033;-72
2022/07/01 00:10:20;;;;;;;12.15;8.23;;;;;;;23.55;93.46;100108.31;5167910;28;20026;-72
2022/07/01 00:12:50;;;;;;;11.93;7.53;;;;;;;23.54;93.76;100106.63;5172739;28;20038;-72
2022/07/01 00:15:22;;;;;;;13.30;7.63;;;;;;;23.49;93.27;100118.72;5171965;28;20061;-72
2022/07/01 00:17:52;;;;;;;14.35;6.82;;;;;;;23.49;93.55;100130.25;5174083;28;20033;-72
2022/07/01 00:20:22;;;;;;;11.27;6.20;;;;;;;23.42;94.06;100134.53;5163622;28;20022;-72
2022/07/01 00:22:53;;;;;;;13.38;5.93;;;;;;;23.28;94.67;100134.13;5162679;28;20037;-73
2022/07/01 00:25:23;;;;;;;10.45;5.28;;;;;;;23.11;96.04;100125.06;5171392;28;20022;-72
2022/07/01 00:27:53;;;;;;;8.82;5.82;;;;;;;22.89;96.99;100130.72;5171301;28;20048;-72
2022/07/01 00:30:24;;;;;;;11.07;5.22;;;;;;;22.83;97.62;100133.91;5173818;28;20037;-72
2022/07/01 00:32:54;;;;;;;9.50;5.00;;;;;;;22.62;98.89;100131.56;5172149;28;20034;-72
2022/07/01 00:35:25;;;;;;;10.18;4.88;;;;;;;22.59;99.19;100127.34;5173810;28;20419;-72
2022/07/01 00:37:55;;;;;;;7.35;4.95;;;;;;;22.39;100.00;100135.50;5172066;28;20098;-72
2022/07/01 00:40:26;;;;;;;8.57;4.68;;;;;;;22.14;100.00;100142.16;5172868;28;20033;-69
2022/07/01 00:42:56;;;;;;;9.77;4.75;;;;;;;22.16;100.00;100144.69;5172125;28;20106;-72
2022/07/01 00:45:27;;;;;;;9.05;4.55;;;;;;;21.95;100.00;100144.75;5173122;28;20030;-72
2022/07/01 00:47:57;;;;;;;8.30;4.00;;;;;;;21.97;100.00;100149.97;5172385;28;20754;-73
2022/07/01 00:50:28;;;;;;;8.48;4.38;;;;;;;21.81;100.00;100153.16;5162042;28;20034;-73
2022/07/01 00:52:58;;;;;;;7.80;4.22;;;;;;;21.83;100.00;100166.31;5164635;28;20091;-72
2022/07/01 00:55:29;;;;;;;6.18;3.80;;;;;;;21.70;100.00;100174.53;5172797;28;20057;-72
2022/07/01 00:57:59;;;;;;;6.82;3.75;;;;;;;21.71;100.00;100164.75;5172285;28;20509;-72
2022/07/01 01:00:30;;;;;;;8.45;3.97;;;;;;;21.61;100.00;100163.81;5172728;28;20040;-72
2022/07/01 01:03:00;;;;;;;7.22;4.18;;;;;;;21.56;100.00;100182.00;5171304;28;20113;-72
2022/07/01 01:05:31;;;;;;;7.75;4.40;;;;;;;21.32;100.00;100200.91;5172924;28;20527;-72
2022/07/01 01:08:01;;;;;;;9.23;4.13;;;;;;;21.28;100.00;100183.56;5171713;28;20034;-72
2022/07/01 01:10:32;;;;;;;7.22;4.07;;;;;;;21.33;100.00;100188.44;5172576;28;20369;-68
2022/07/01 01:13:03;;;;;;;7.55;4.57;;;;;;;21.32;100.00;100189.41;5171959;28;20029;-72
2022/07/01 01:15:33;;;;;;;10.68;4.35;;;;;;;21.09;100.00;100177.25;5172718;28;20028;-73
2022/07/01 01:18:03;;;;;;;7.85;4.68;;;;;;;21.14;100.00;100169.72;5171060;28;20025;-73
2022/07/01 01:20:37;;;;;;;7.60;4.55;;;;;;;21.15;100.00;100192.69;5158336;28;20026;-73
2022/07/01 01:23:08;;;;;;;7.72;4.15;;;;;;;21.18;100.00;100219.84;5164514;28;20053;-73
2022/07/01 01:25:38;;;;;;;8.82;4.40;;;;;;;21.30;100.00;100224.13;5173174;28;20026;-72
2022/07/01 01:28:08;;;;;;;7.55;4.20;;;;;;;21.24;100.00;100206.03;5168685;28;20034;-72
2022/07/01 01:30:39;;;;;;;5.80;3.75;;;;;;;21.30;100.00;100205.53;5172963;28;20092;-72
2022/07/01 01:33:11;;;;;;;6.75;4.20;;;;;;;21.32;100.00;100205.38;5170608;28;20054;-73
2022/07/01 01:35:42;;;;;;;7.13;3.60;;;;;;;21.37;100.00;100208.50;5173478;28;20064;-72
2022/07/01 01:38:12;;;;;;;7.68;3.75;;;;;;;21.20;100.00;100211.75;5169407;28;20396;-72
2022/07/01 01:40:43;;;;;;;5.88;3.92;;;;;;;21.24;100.00;100213.19;5164231;28;20030;-71
2022/07/01 01:43:13;;;;;;;7.80;4.15;;;;;;;21.21;100.00;100216.94;5165603;28;20022;-72
2022/07/01 01:45:44;;;;;;;6.85;4.05;;;;;;;21.21;100.00;100224.06;5174037;28;20049;-72
2022/07/01 01:48:14;;;;;;;6.88;3.60;;;;;;;21.29;100.00;100221.59;5169479;28;20048;-72
2022/07/01 01:50:44;;;;;;;6.88;3.83;;;;;;;21.32;100.00;100224.00;5161326;28;20611;-71
2022/07/01 01:53:15;;;;;;;5.07;3.15;;;;;;;21.05;100.00;100229.81;5169902;28;20034;-71
2022/07/01 01:55:45;;;;;;;5.78;3.90;;;;;;;21.21;100.00;100246.16;5173943;28;20125;-71
2022/07/01 01:58:15;;;;;;;5.85;3.50;;;;;;;21.18;100.00;100257.06;5169358;28;20026;-72
2022/07/01 02:00:46;;;;;;;9.10;4.20;;;;;;;21.08;100.00;100242.03;5188762;28;20022;-72
2022/07/01 02:03:16;;;;;;;8.90;4.38;;;;;;;21.02;100.00;100242.50;5170046;28;20068;-72
2022/07/01 02:05:46;;;;;;;5.35;3.97;;;;;;;21.01;100.00;100252.31;5171468;28;20112;-72
2022/07/01 02:08:17;;;;;;;6.50;4.35;;;;;;;20.83;100.00;100242.34;5168677;28;20141;-72
2022/07/01 02:10:47;;;;;;;7.60;4.45;;;;;;;20.95;100.00;100251.97;5169551;28;20037;-72
2022/07/01 02:13:18;;;;;;;7.75;4.18;;;;;;;21.02;100.00;100272.63;5172610;28;20372;-72
2022/07/01 02:15:54;;;;;;;7.15;4.45;;;;;;;20.95;100.00;100286.53;5185631;28;20089;-68
2022/07/01 02:18:25;;;;;;;7.30;4.88;;;;;;;20.89;100.00;100273.75;5169494;28;20030;-73
2022/07/01 02:20:55;;;;;;;10.63;5.88;;;;;;;20.76;100.00;100265.91;5164508;28;20034;-72
2022/07/01 02:23:25;;;;;;;8.40;5.63;;;;;;;20.67;100.00;100256.03;5170694;28;20038;-72
2022/07/01 02:25:56;;;;;;;8.85;5.72;;;;;;;20.61;100.00;100271.63;5171505;28;21913;-72
2022/07/01 02:28:26;;;;;;;12.02;6.75;;;;;;;20.43;100.00;100290.88;5169717;28;20396;-72
2022/07/01 02:30:57;;;;;;;12.73;6.63;;;;;;;20.52;100.00;100309.56;5171196;28;20033;-72
2022/07/01 02:33:27;;;;;;;9.43;7.35;;;;;;;20.42;100.00;100321.88;5169556;28;20519;-72
2022/07/01 02:35:58;;;;;;;9.85;7.60;;;;;;;20.38;100.00;100328.41;5172071;28;20117;-72
2022/07/01 02:38:28;;;;;;;8.50;7.22;;;;;;;20.19;100.00;100349.41;5167771;28;20036;-72
2022/07/01 02:40:59;;;;;;;10.85;6.95;;;;;;;20.22;100.00;100386.34;5169289;28;20245;-72
2022/07/01 02:43:29;;;;;;;7.82;5.90;;;;;;;20.12;100.00;100411.88;5170760;28;20594;-72
2022/07/01 02:45:59;;;;;;;6.68;5.30;;;;;;;20.08;100.00;100423.72;5170170;28;20393;-72
2022/07/01 02:48:29;;;;;;;10.65;5.20;;;;;;;19.98;100.00;100413.88;5169908;28;20034;-73
2022/07/01 02:51:00;;;;;;;19.35;7.00;;;;;;;20.09;100.00;100403.34;5170776;28;20563;-72
2022/07/01 02:53:30;;;;;;;21.77;8.07;;;;;;;20.08;100.00;100439.63;5162086;28;20030;-72
2022/07/01 02:56:01;;;;;;;15.98;7.15;;;;;;;19.54;100.00;100470.28;5171063;28;20028;-71
2022/07/01 02:58:31;;;;;;;11.00;5.80;;;;;;;19.60;100.00;100477.78;5169071;28;20077;-71
2022/07/01 03:01:01;;;;;;;10.38;5.57;;;;;;;19.51;100.00;100459.91;5170705;28;20025;-72
2022/07/01 03:03:31;;;;;;;11.75;6.30;;;;;;;19.59;100.00;100432.81;5170764;28;20472;-72
2022/07/01 03:06:02;;;;;;;12.00;7.38;;;;;;;19.15;100.00;100396.31;5170786;28;20685;-72
2022/07/01 03:08:32;;;;;;;16.73;9.02;;;;;;;18.97;100.00;100399.47;5166535;28;20030;-73
2022/07/01 03:11:03;;;;;;;15.13;8.57;;;;;;;18.78;100.00;100391.16;5170845;28;20058;-72
2022/07/01 03:13:33;;;;;;;12.43;9.27;;;;;;;18.62;100.00;100376.47;5169936;28;20113;-72
2022/07/01 03:16:03;;;;;;;14.13;8.75;;;;;;;18.61;100.00;100374.78;5169371;28;20023;-72
2022/07/01 03:18:34;;;;;;;15.98;8.75;;;;;;;18.57;100.00;100365.34;5169924;28;20443;-73
2022/07/01 03:21:04;;;;;;;10.85;8.40;;;;;;;18.53;100.00;100369.19;5183660;28;20028;-72
2022/07/01 03:23:34;;;;;;;11.82;8.00;;;;;;;18.53;100.00;100366.53;5185641;28;20392;-70
2022/07/01 03:26:05;;;;;;;11.20;7.63;;;;;;;18.40;100.00;100373.66;5169399;28;20060;-71
2022/07/01 03:28:35;;;;;;;11.13;7.25;;;;;;;18.47;100.00;100383.69;5168879;28;20491;-73
2022/07/01 03:31:05;;;;;;;8.55;6.25;;;;;;;18.36;100.00;100388.88;5169023;28;20026;-72
2022/07/01 03:33:36;;;;;;;9.07;5.88;;;;;;;18.36;100.00;100388.06;5170344;28;20517;-72
2022/07/01 03:36:06;;;;;;;8.30;6.22;;;;;;;18.25;100.00;100391.44;5170677;28;20441;-72
2022/07/01 03:38:36;;;;;;;8.45;6.00;;;;;;;18.31;100.00;100385.72;5166125;28;20030;-72
2022/07/01 03:41:07;;;;;;;8.20;5.95;;;;;;;18.34;100.00;100389.97;5168961;28;20061;-72
2022/07/01 03:43:37;;;;;;;8.10;5.20;;;;;;;18.40;100.00;100405.41;5182799;28;20033;-73
2022/07/01 03:46:07;;;;;;;5.95;4.38;;;;;;;18.27;100.00;100409.81;5169211;28;20038;-72
2022/07/01 03:48:38;;;;;;;6.38;3.75;;;;;;;18.22;100.00;100402.22;5168345;28;20483;-72
2022/07/01 03:51:08;;;;;;;4.45;3.20;;;;;;;18.24;100.00;100405.63;5165999;28;20029;-72
2022/07/01 03:56:27;;;;;;;2.10;1.30;;;;;;;17.85;100.00;100399.56;5165941;28;20053;-72
2022/07/01 03:58:58;;;;;;;2.40;1.40;;;;;;;17.67;100.00;100404.28;5167998;28;20471;-72
2022/07/01 04:01:28;;;;;;;1.90;1.10;;;;;;;17.74;100.00;100400.28;5168481;28;20030;-72
2022/07/01 04:03:59;;;;;;;3.45;1.10;;;;;;;17.68;100.00;100400.69;5170103;28;20054;-72
2022/07/01 04:06:29;;;;;;;5.38;1.10;;;;;;;17.42;100.00;100395.44;5169552;28;20038;-72
2022/07/01 04:09:00;;;;;;;4.00;1.20;;;;;;;17.43;100.00;100397.16;5181013;28;20030;-71
2022/07/01 04:11:31;;;;;;;2.55;1.40;;;;;;;17.37;100.00;100397.56;5168291;28;20125;-72
2022/07/01 04:14:01;;;;;;;2.97;1.40;;;;;;;17.47;100.00;100396.84;5169253;28;20075;-73
2022/07/01 04:16:32;;;;;;;2.20;1.40;;;;;;;17.51;100.00;100413.34;5169013;28;20109;-72
2022/07/01 04:19:03;;;;;;;3.17;1.83;;;;;;;17.45;100.00;100406.66;5170724;28;20064;-73
2022/07/01 04:24:26;;;;;;;2.50;1.50;;;;;;;17.51;100.00;100413.34;5165145;28;20057;-73
2022/07/01 04:26:57;;;;;;;2.90;1.60;;;;;;;17.61;100.00;100422.34;5169514;28;20041;-73
2022/07/01 04:29:29;;;;;;;3.83;1.65;;;;;;;17.44;100.00;100417.34;5168665;28;20105;-72
2022/07/01 04:31:59;;;;;;;2.75;1.52;;;;;;;17.55;100.00;100417.47;5169494;28;20411;-73
2022/07/01 04:34:29;;;;;;;3.80;2.20;;;;;;;17.65;100.00;100434.44;5169106;28;20049;-73
2022/07/01 04:37:00;;;;;;;3.35;2.30;;;;;;;17.63;100.00;100449.56;5166905;28;20030;-72
2022/07/01 04:39:30;;;;;;;4.03;2.63;;;;;;;17.43;100.00;100479.91;5167571;28;20109;-73
2022/07/01 04:42:01;;;;;;;4.85;3.22;;;;;;;17.57;100.00;100495.72;5169238;28;20026;-72
2022/07/01 04:44:35;;;;;;;4.07;3.20;;;;;;;17.63;100.00;100492.69;5169353;28;20053;-72
2022/07/01 04:47:06;;;;;;;5.13;3.38;;;;;;;17.55;100.00;100496.78;5167130;28;20427;-72
2022/07/01 04:49:37;;;;;;;7.35;3.88;;;;;;;17.46;100.00;100498.22;5169278;28;20057;-73
2022/07/01 04:52:07;;;;;;;4.68;3.20;;;;;;;17.51;100.00;100500.56;5168208;28;20231;-73
2022/07/01 04:54:37;;;;;;;4.80;3.35;;;;;;;17.40;100.00;100508.31;5170098;28;20026;-73
2022/07/01 04:57:08;;;;;;;3.95;3.20;;;;;;;17.51;100.00;100504.03;5167485;28;20034;-73
2022/07/01 04:59:38;;;;;;;3.53;2.50;;;;;;;17.46;100.00;100500.84;5188215;28;20025;-73
2022/07/01 05:02:08;;;;;;;4.78;2.35;;;;;;;17.54;100.00;100508.28;5171181;28;20023;-72
2022/07/01 05:04:40;;;;;;;4.53;1.88;;;;;;;17.42;100.00;100514.34;5173338;28;20483;-72
2022/07/01 05:07:27;;;;;;;4.25;2.00;;;;;;;17.32;100.00;100515.88;5168671;28;20432;-71
2022/07/01 05:10:01;;;;;;;4.80;2.03;;;;;;;17.46;100.00;100523.81;5170421;28;20058;-72
2022/07/01 05:12:31;;;;;;;3.45;1.40;;;;;;;17.27;100.00;100516.16;5170819;28;20088;-71
2022/07/01 05:15:02;;;;;;;3.53;1.70;;;;;;;17.08;100.00;100525.34;5171183;28;20491;-72
2022/07/01 05:23:15;;;;;;;3.10;1.38;;;;;;;17.10;100.00;100539.28;5167954;28;20399;-72
2022/07/01 05:25:45;;;;;;;2.40;1.30;;;;;;;17.10;100.00;100541.94;5169781;28;20030;-73
2022/07/01 05:28:15;;;;;;;3.53;1.67;;;;;;;17.28;100.00;100543.44;5165764;28;20373;-71
2022/07/01 05:30:46;;;;;;;2.25;1.50;;;;;;;17.26;100.00;100542.66;5173240;28;20022;-73
2022/07/01 05:33:17;;;;;;;2.20;1.40;;;;;;;17.21;100.00;100542.13;5166900;28;20034;-71
2022/07/01 05:35:48;;;;;;;3.28;1.60;;;;;;;17.42;100.00;100546.06;5171847;28;20074;-72
2022/07/01 05:38:18;;;;;;;3.15;1.60;;;;;;;17.44;100.00;100544.16;5166389;28;20112;-72
2022/07/01 05:40:49;;;;;;;2.58;1.40;;;;;;;17.33;100.00;100542.19;5172067;28;20594;-72
2022/07/01 05:43:20;;;;;;;3.33;1.50;;;;;;;17.62;100.00;100533.28;5168814;28;20392;-72
2022/07/01 05:45:50;;;;;;;2.58;1.40;;;;;;;17.57;100.00;100553.03;5169402;28;20041;-72
2022/07/01 05:48:20;;;;;;;2.63;1.33;;;;;;;17.66;100.00;100549.78;5169255;28;20057;-72
2022/07/01 05:50:51;;;;;;;2.60;1.67;;;;;;;17.25;100.00;100541.84;5170262;28;20553;-72
2022/07/01 05:53:22;;;;;;;3.42;2.17;;;;;;;17.27;100.00;100539.94;5169789;28;20391;-72
2022/07/01 05:55:52;;;;;;;2.40;1.50;;;;;;;17.35;100.00;100545.59;5170555;28;20053;-72
2022/07/01 05:58:22;;;;;;;2.92;1.80;;;;;;;17.47;100.00;100550.13;5171335;28;20468;-73
2022/07/01 06:00:52;;;;;;;3.95;2.03;;;;;;;17.53;100.00;100562.97;5170759;28;20061;-73
2022/07/01 06:03:23;;;;;;;3.35;1.95;;;;;;;17.65;100.00;100577.19;5172305;28;20117;-73
2022/07/01 06:05:53;;;;;;;3.67;1.60;;;;;;;17.64;100.00;100575.47;5170230;28;20057;-72
2022/07/01 06:08:23;;;;;;;4.75;1.60;;;;;;;17.65;100.00;100564.78;5168699;28;20041;-73
2022/07/01 06:10:54;;;;;;;2.95;1.70;;;;;;;17.75;100.00;100565.91;5170613;28;20033;-73
2022/07/01 06:13:24;;;;;;;2.05;1.42;;;;;;;17.80;100.00;100584.13;5170209;28;20030;-73
2022/07/01 06:15:57;;;;;;;2.10;1.50;;;;;;;17.76;100.00;100578.19;5171800;28;20060;-73
2022/07/01 06:18:27;;;;;;;2.33;1.42;;;;;;;17.59;100.00;100572.25;5169759;28;20026;-72
2022/07/01 06:20:57;;;;;;;3.88;1.50;;;;;;;17.65;100.00;100575.38;5170949;28;20030;-72
2022/07/01 06:23:28;;;;;;;3.45;1.40;;;;;;;17.53;100.00;100576.19;5170049;28;20470;-72
2022/07/01 06:25:59;;;;;;;2.80;1.27;;;;;;;17.60;100.00;100580.09;5171178;28;20072;-73
2022/07/01 06:28:29;;;;;;;2.33;1.42;;;;;;;17.66;100.00;100584.16;5170304;28;20469;-72
2022/07/01 06:30:59;;;;;;;2.40;1.25;;;;;;;17.60;100.00;100581.88;5171129;28;20470;-73
2022/07/01 06:33:30;;;;;;;3.28;1.50;;;;;;;17.59;100.00;100583.69;5170830;28;20046;-72
2022/07/01 06:36:00;;;;;;;3.42;1.40;;;;;;;17.67;100.00;100594.63;5170228;28;20034;-71
2022/07/01 06:38:31;;;;;;;1.85;1.40;;;;;;;17.60;100.00;100592.47;5169568;28;20038;-72
2022/07/01 06:43:50;;;;;;;4.10;1.55;;;;;;;17.52;100.00;100589.47;5169448;28;20041;-73
2022/07/01 06:46:22;;;;;;;4.38;2.00;;;;;;;17.63;100.00;100576.44;5170160;28;20038;-72
2022/07/01 06:48:52;;;;;;;3.42;1.90;;;;;;;17.47;100.00;100575.72;5166968;28;20491;-72
2022/07/01 06:51:23;;;;;;;3.53;1.98;;;;;;;17.49;100.00;100579.09;5163684;28;20036;-72
2022/07/01 06:53:53;;;;;;;3.78;2.05;;;;;;;17.48;100.00;100587.97;5167837;28;20029;-72
2022/07/01 06:56:24;;;;;;;6.57;2.45;;;;;;;17.36;100.00;100597.53;5166326;28;20492;-72
2022/07/01 06:58:55;;;;;;;3.15;1.95;;;;;;;17.36;100.00;100594.03;5168659;28;20415;-73
2022/07/01 07:01:26;;;;;;;3.10;1.95;;;;;;;17.45;100.00;100596.94;5168233;28;20022;-73
2022/07/01 07:03:56;;;;;;;3.05;2.10;;;;;;;17.59;100.00;100596.06;5169675;28;20196;-73
2022/07/01 07:06:27;;;;;;;4.30;2.05;;;;;;;17.58;100.00;100612.88;5169371;28;20037;-73
2022/07/01 07:08:57;;;;;;;3.30;1.95;;;;;;;17.65;100.00;100622.13;5170105;28;20033;-72
2022/07/01 07:11:27;;;;;;;3.88;1.95;;;;;;;17.72;100.00;100623.41;5169333;28;20027;-73
2022/07/01 07:13:58;;;;;;;3.35;1.90;;;;;;;17.52;100.00;100619.38;5170351;28;20189;-73
2022/07/01 07:16:28;;;;;;;4.95;2.40;;;;;;;17.59;100.00;100627.78;5169139;28;20022;-72
2022/07/01 07:18:58;;;;;;;5.97;2.70;;;;;;;17.56;100.00;100627.97;5170259;28;20053;-73
2022/07/01 07:21:29;;;;;;;3.28;2.47;;;;;;;17.54;100.00;100645.72;5164967;28;20026;-72
2022/07/01 07:23:59;;;;;;;5.22;2.63;;;;;;;17.47;100.00;100644.41;5168093;28;20022;-72
2022/07/01 07:26:29;;;;;;;3.67;2.47;;;;;;;17.52;100.00;100642.34;5169507;28;20029;-72
2022/07/01 07:29:00;;;;;;;3.65;2.60;;;;;;;17.69;100.00;100645.59;5168367;28;20651;-73
2022/07/01 07:31:30;;;;;;;5.28;2.47;;;;;;;17.51;100.00;100662.63;5170373;28;20141;-72
2022/07/01 07:34:00;;;;;;;5.15;3.03;;;;;;;17.63;100.00;100661.84;5184861;28;20034;-73
2022/07/01 07:36:31;;;;;;;5.18;3.30;;;;;;;17.31;100.00;100665.63;5169690;28;20388;-69
2022/07/01 07:39:02;;;;;;;6.57;3.78;;;;;;;17.19;100.00;100660.25;5169801;28;20419;-72
2022/07/01 07:41:32;;;;;;;5.63;3.80;;;;;;;17.21;100.00;100661.00;5167893;28;20022;-72
2022/07/01 07:44:02;;;;;;;7.53;3.40;;;;;;;17.32;100.00;100659.38;5169785;28;20356;-73
2022/07/01 07:46:33;;;;;;;5.85;2.88;;;;;;;17.39;100.00;100662.53;5168788;28;20113;-73
2022/07/01 07:49:03;;;;;;;6.97;3.28;;;;;;;17.17;100.00;100662.13;5169671;28;20076;-73
2022/07/01 07:51:34;;;;;;;4.72;2.95;;;;;;;17.27;100.00;100665.88;5166802;28;20080;-73
2022/07/01 07:54:04;;;;;;;4.53;2.80;;;;;;;17.38;100.00;100677.56;5168243;28;20037;-73
2022/07/01 07:56:34;;;;;;;4.22;2.75;;;;;;;17.38;100.00;100676.69;5168519;28;20437;-72
2022/07/01 07:59:05;;;;;;;5.93;3.28;;;;;;;17.49;100.00;100682.16;5184653;28;20088;-73
2022/07/01 08:01:35;;;;;;;4.78;3.00;;;;;;;17.51;100.00;100680.28;5167210;28;20064;-73
2022/07/01 08:04:06;;;;;;;5.68;2.97;;;;;;;17.51;100.00;100688.22;5170032;28;20412;-73
2022/07/01 08:06:36;;;;;;;4.90;2.90;;;;;;;17.40;100.00;100696.81;5167538;28;20035;-71
2022/07/01 08:09:06;;;;;;;4.07;3.15;;;;;;;17.25;100.00;100707.41;5185062;28;20502;-72
2022/07/01 08:11:37;;;;;;;5.07;3.03;;;;;;;17.26;100.00;100722.31;5167871;28;20384;-72
2022/07/01 08:14:07;;;;;;;3.97;2.88;;;;;;;17.30;100.00;100729.13;5170872;28;20221;-72
2022/07/01 08:16:38;;;;;;;5.75;2.78;;;;;;;17.34;100.00;100733.31;5190220;23;20050;-72
2022/07/01 08:19:08;;;;;;;5.10;3.05;;;;;;;17.30;100.00;100731.78;5181152;28;20069;-72
2022/07/01 08:21:39;;;;;;;5.57;3.50;;;;;;;17.28;100.00;100729.22;5165415;28;20543;-72
2022/07/01 08:24:09;;;;;;;5.97;2.88;;;;;;;17.26;100.00;100739.03;5168982;28;20030;-72
2022/07/01 08:26:39;;;;;;;4.65;2.90;;;;;;;17.25;100.00;100733.81;5167136;28;20027;-71
2022/07/01 08:29:09;;;;;;;5.13;3.22;;;;;;;17.43;100.00;100735.38;5170813;28;20026;-72
2022/07/01 08:31:40;;;;;;;5.18;3.60;;;;;;;17.18;100.00;100724.59;5167535;28;20030;-72
2022/07/01 08:34:10;;;;;;;4.85;3.17;;;;;;;17.11;100.00;100718.81;5173532;28;20033;-72
2022/07/01 08:36:41;;;;;;;5.60;3.60;;;;;;;17.17;100.00;100707.03;5170823;28;20022;-72
2022/07/01 08:39:11;;;;;;;6.25;3.40;;;;;;;16.77;100.00;100704.22;5172630;28;20029;-72
2022/07/01 08:41:42;;;;;;;5.10;3.42;;;;;;;16.88;100.00;100710.56;5171373;28;20483;-72
2022/07/01 08:44:12;;;;;;;5.75;3.33;;;;;;;16.93;100.00;100706.72;5170052;28;20500;-72
2022/07/01 08:46:42;;;;;;;5.53;3.05;;;;;;;16.67;100.00;100709.19;5172645;28;20057;-72
2022/07/01 08:49:13;;;;;;;6.32;3.50;;;;;;;16.57;100.00;100704.53;5170589;28;20031;-72
2022/07/01 08:51:44;;;;;;;6.18;3.70;;;;;;;16.72;100.00;100707.13;5167944;28;20026;-72
2022/07/01 08:54:14;;;;;;;6.82;4.03;;;;;;;16.68;100.00;100704.72;5172597;28;20296;-72
2022/07/01 08:56:47;;;;;;;4.75;3.35;;;;;;;16.69;100.00;100704.66;5169366;28;20377;-71
2022/07/01 08:59:26;;;;;;;6.95;3.80;;;;;;;16.57;100.00;100704.53;5162785;28;20125;-72
2022/07/01 09:01:59;;;;;;;5.38;3.60;;;;;;;16.55;100.00;100709.03;5168068;28;20435;-72
2022/07/01 09:04:29;;;;;;;5.57;3.97;;;;;;;16.51;100.00;100718.91;5171234;28;20022;-72
2022/07/01 09:07:06;;;;;;;11.93;4.85;;;;;;;16.49;100.00;100725.22;5171201;28;20048;-72
2022/07/01 09:09:39;;;;;;;7.57;3.80;;;;;;;16.49;100.00;100731.34;5169184;28;20427;-71
2022/07/01 09:12:09;;;;;;;5.95;3.67;;;;;;;16.66;100.00;100728.59;5170321;28;20026;-72
2022/07/01 09:14:41;;;;;;;4.65;3.45;;;;;;;16.53;100.00;100739.97;5172562;28;20033;-72
2022/07/01 09:17:19;;;;;;;7.25;3.75;;;;;;;16.71;100.00;100738.91;5167674;28;20042;-72
2022/07/01 09:19:50;;;;;;;4.70;3.03;;;;;;;16.74;100.00;100744.00;5165153;28;20439;-72
2022/07/01 09:22:20;;;;;;;7.85;3.25;;;;;;;16.65;100.00;100750.66;5163835;28;20054;-72
2022/07/01 09:24:51;;;;;;;9.85;3.95;;;;;;;16.85;100.00;100756.50;5165124;28;20562;-72
2022/07/01 09:27:25;;;;;;;7.85;2.90;;;;;;;16.81;100.00;100756.75;5170402;28;20101;-72
2022/07/01 09:29:56;;;;;;;3.60;2.58;;;;;;;16.89;100.00;100765.94;5170543;28;20042;-72
2022/07/01 09:32:26;;;;;;;4.78;2.80;;;;;;;16.72;100.00;100767.81;5165683;28;20435;-72
2022/07/01 09:34:56;;;;;;;6.18;3.00;;;;;;;16.77;100.00;100774.53;5173385;28;20113;-72
2022/07/01 09:37:27;;;;;;;3.88;2.70;;;;;;;16.88;100.00;100777.44;5167141;28;20030;-71
2022/07/01 09:39:57;;;;;;;4.40;3.13;;;;;;;17.05;100.00;100784.34;5169406;28;20092;-72
2022/07/01 09:42:28;;;;;;;6.28;3.25;;;;;;;16.94;100.00;100787.63;5170145;28;20023;-72
2022/07/01 09:45:06;;;;;;;4.82;3.30;;;;;;;16.65;100.00;100792.88;5169836;28;20034;-72
2022/07/01 09:47:40;;;;;;;3.88;3.25;;;;;;;16.91;100.00;100793.09;5170787;28;20042;-72
2022/07/01 09:50:11;;;;;;;7.65;3.17;;;;;;;17.05;100.00;100789.63;5169093;28;20395;-71
2022/07/01 09:52:41;;;;;;;5.35;3.30;;;;;;;16.97;100.00;100800.63;5170881;28;20041;-72
2022/07/01 09:55:12;;;;;;;4.97;3.35;;;;;;;16.95;100.00;100794.59;5171986;28;20022;-72
2022/07/01 09:57:42;;;;;;;5.90;3.08;;;;;;;17.06;100.00;100799.25;5167473;28;20026;-72
2022/07/01 10:00:13;;;;;;;7.97;3.63;;;;;;;17.03;100.00;100792.38;5170665;28;20041;-72
2022/07/01 10:02:45;;;;;;;6.07;3.90;;;;;;;17.05;100.00;100794.91;5167418;28;20057;-72
2022/07/01 10:05:19;;;;;;;5.22;3.92;;;;;;;17.00;100.00;100803.09;5171237;28;20025;-72
2022/07/01 10:08:11;;;;;;;6.40;4.22;;;;;;;16.82;100.00;100798.06;5166923;28;20476;-72
2022/07/01 10:10:49;;;;;;;6.60;4.45;;;;;;;16.98;100.00;100801.50;5170029;28;20523;-72
2022/07/01 10:13:25;;;;;;;6.25;4.70;;;;;;;16.99;100.00;100806.69;5164732;28;20410;-73
2022/07/01 10:15:59;;;;;;;5.35;4.68;;;;;;;17.29;100.00;100807.53;5170393;28;20029;-72
2022/07/01 10:18:30;;;;;;;7.35;4.95;;;;;;;17.21;100.00;100815.06;5169728;28;20282;-72
2022/07/01 10:21:01;;;;;;;8.25;5.97;;;;;;;17.38;100.00;100814.09;5171036;28;20117;-72
2022/07/01 10:23:41;;;;;;;28.55;11.93;;;;;;;17.41;100.00;100822.72;5170668;28;20026;-73
2022/07/01 10:26:12;;;;;;;12.07;6.07;;;;;;;17.31;100.00;100815.38;5168404;28;20451;-71
2022/07/01 10:28:43;;;;;;;8.05;5.65;;;;;;;17.09;100.00;100814.91;5171928;28;20117;-72
2022/07/01 10:31:16;;;;;;;9.60;4.95;;;;;;;17.25;100.00;100818.38;5168079;28;20026;-71
2022/07/01 10:34:04;;;;;;;9.90;5.30;;;;;;;17.34;100.00;100820.50;5164567;28;20492;-73
2022/07/01 10:36:35;;;;;;;11.35;5.50;;;;;;;17.34;100.00;100828.44;5170122;28;20045;-71
2022/07/01 10:41:55;;;;;;;4.83;3.10;;;;;;;17.52;100.00;100840.56;5168110;28;20119;-72
2022/07/01 10:44:27;;;;;;;5.32;3.22;;;;;;;17.23;100.00;100844.03;5165014;28;20277;-72
2022/07/01 10:47:06;;;;;;;4.75;3.67;;;;;;;16.94;100.00;100840.44;5168164;28;20038;-72
2022/07/01 10:49:36;;;;;;;6.75;3.70;;;;;;;17.32;100.00;100831.13;5169044;28;20040;-72
2022/07/01 10:52:20;;;;;;;5.90;3.83;;;;;;;17.29;100.00;100833.13;5167373;28;20322;-72
2022/07/01 10:54:55;;;;;;;5.95;3.88;;;;;;;17.37;100.00;100836.19;5164833;28;20273;-72
2022/07/01 10:57:31;;;;;;;6.75;4.50;;;;;;;17.62;100.00;100845.19;5167684;28;20428;-72
2022/07/01 11:00:01;;;;;;;;;;;;;;;17.35;100.00;100838.91;5169272;28;20038;-72
2022/07/01 11:02:38;;;;;;;7.37;4.03;;;;;;;17.53;100.00;100842.25;5168057;28;19944;-72
2022/07/01 11:05:11;;;;;;;5.43;3.60;;;;;;;17.67;100.00;100839.66;5169755;28;20029;-72
2022/07/01 11:07:46;;;;;;;6.88;3.70;;;;;;;17.41;100.00;100835.06;5168867;28;20018;-72
2022/07/01 11:10:18;;;;;;;6.45;3.80;;;;;;;17.61;100.00;100838.22;5162967;28;20532;-71
2022/07/01 11:12:50;;;;;;;4.85;3.42;;;;;;;17.78;100.00;100835.41;5170680;28;20045;-72
2022/07/01 11:15:22;;;;;;;4.40;3.47;;;;;;;17.51;100.00;100837.06;5168424;28;20025;-71
2022/07/01 11:17:55;;;;;;;5.13;3.55;;;;;;;17.38;100.00;100835.25;5169230;28;20460;-72
2022/07/01 11:20:29;;;;;;;5.50;3.55;;;;;;;17.47;100.00;100840.00;5168276;28;20057;-71
2022/07/01 11:23:00;;;;;;;5.22;3.67;;;;;;;17.44;100.00;100840.16;5169762;28;20486;-72
2022/07/01 11:25:31;;;;;;;5.68;3.60;;;;;;;17.59;100.00;100839.25;5169342;28;20036;-73
2022/07/01 11:28:02;;;;;;;5.15;3.70;;;;;;;17.58;100.00;100821.69;5167435;28;20026;-72
2022/07/01 11:30:32;;;;;;;4.72;3.40;;;;;;;17.65;100.00;100820.38;5169403;28;20037;-72
2022/07/01 11:33:03;;;;;;;5.18;3.42;;;;;;;17.81;100.00;100819.34;5168708;28;20068;-72
2022/07/01 11:41:20;;;;;;;8.52;3.75;;;;;;;17.95;100.00;100815.84;5165875;28;20092;-71
2022/07/01 11:43:51;;;;;;;5.65;4.20;;;;;;;18.08;100.00;100820.31;5170508;28;20037;-72
2022/07/01 11:46:23;;;;;;;9.63;4.35;;;;;;;18.24;100.00;100821.03;5167970;28;20034;-72
2022/07/01 11:48:54;;;;;;;5.95;4.22;;;;;;;18.25;100.00;100833.31;5169749;28;20021;-72
2022/07/01 11:51:26;;;;;;;6.22;4.55;;;;;;;18.31;100.00;100834.78;5164377;28;20034;-72
2022/07/01 11:53:57;;;;;;;6.70;4.80;;;;;;;18.31;100.00;100837.44;5165034;28;20030;-72
2022/07/01 11:56:35;;;;;;;8.50;4.90;;;;;;;18.06;100.00;100839.84;5166889;28;20506;-72